Time;durP1;ratioP1;P1;durP2;ratioP2;P2;SDS_P1;SDS_P2;PMS_P1;PMS_P2;Temp;Humidity;BMP_temperature;BMP_pressure;BME280_temperature;BME280_humidity;BME280_pressure;Samples;Min_cycle;Max_cycle;Signal;HPM_P1;HPM_P2
2022/12/13 03:50:28;;;;;;;23.88;14.85;;;;;;;-1.71;80.15;100423.47;5029415;28;20048;-61
2022/12/13 03:53:02;;;;;;;23.05;13.75;;;;;;;-1.72;80.37;100419.16;5032249;28;20457;-62
2022/12/13 03:55:29;;;;;;;25.67;14.40;;;;;;;-1.68;80.08;100419.97;5029473;28;20152;-63
2022/12/13 03:57:57;;;;;;;23.27;13.73;;;;;;;-1.66;80.60;100410.50;5030357;28;20054;-62
2022/12/13 04:00:29;;;;;;;20.65;12.98;;;;;;;-1.74;79.92;100413.19;5030145;28;20501;-63
2022/12/13 04:02:56;;;;;;;23.20;13.98;;;;;;;-1.76;79.79;100409.75;5031191;28;20474;-63
2022/12/13 04:05:23;;;;;;;24.45;14.13;;;;;;;-1.76;80.17;100414.91;5029344;28;20077;-63
2022/12/13 04:07:50;;;;;;;28.02;16.48;;;;;;;-1.74;80.52;100415.75;5029084;28;20045;-63
2022/12/13 04:10:26;;;;;;;;;;;;;;;-1.77;80.25;100425.25;5028018;28;20077;-63
2022/12/13 04:15:39;;;;;;;24.70;14.38;;;;;;;-1.73;80.15;100412.28;5028866;28;20051;-62
2022/12/13 04:18:06;;;;;;;26.35;15.55;;;;;;;-1.72;79.99;100414.00;5029224;28;20048;-59
2022/12/13 04:20:33;;;;;;;24.58;14.13;;;;;;;-1.75;80.32;100408.91;5029438;28;20063;-63
2022/12/13 04:23:02;;;;;;;21.65;12.68;;;;;;;-1.71;79.64;100404.53;5030358;28;20080;-62
2022/12/13 04:25:37;;;;;;;21.38;13.80;;;;;;;-1.64;79.45;100411.34;5008166;28;20132;-62
2022/12/13 04:28:05;;;;;;;22.13;13.70;;;;;;;-1.62;79.41;100409.56;5028120;28;20067;-63
2022/12/13 04:30:33;;;;;;;24.42;14.82;;;;;;;-1.69;79.63;100411.38;5029053;28;20062;-63
2022/12/13 04:33:00;;;;;;;24.30;12.75;;;;;;;-1.70;79.58;100407.09;5009705;28;20045;-63
2022/12/13 04:44:07;;;;;;;22.85;14.43;;;;;;;-1.64;79.39;100412.19;5028260;28;20072;-62
2022/12/13 04:46:54;;;;;;;26.00;13.27;;;;;;;-1.61;79.33;100421.63;5026748;28;20576;-63
2022/12/13 04:49:28;;;;;;;25.85;14.90;;;;;;;-1.56;79.83;100418.09;5027637;28;20113;-63
2022/12/13 04:51:56;;;;;;;21.05;13.35;;;;;;;-1.52;79.99;100416.34;5011969;28;20045;-64
2022/12/13 04:58:39;;;;;;;22.65;12.50;;;;;;;-1.41;79.64;100426.53;5024655;28;20041;-61
2022/12/13 06:10:05;;;;;;;23.08;12.98;;;;;;;-1.54;78.53;100410.34;5029269;28;20743;-79
2022/12/13 06:57:58;;;;;;;26.50;16.10;;;;;;;-1.56;78.80;100446.50;5040562;23;20045;-65
2022/12/13 07:00:25;;;;;;;21.38;14.90;;;;;;;-1.54;78.99;100449.91;5021890;28;20143;-65
2022/12/13 07:03:05;;;;;;;24.65;15.20;;;;;;;-1.53;78.91;100455.94;5026905;28;20056;-65
2022/12/13 07:05:32;;;;;;;27.67;15.20;;;;;;;-1.47;78.58;100457.59;5031516;28;20088;-65
2022/12/13 07:07:59;;;;;;;28.83;15.20;;;;;;;-1.49;79.17;100461.91;5024996;28;20313;-65
2022/12/13 07:10:27;;;;;;;33.35;15.85;;;;;;;-1.48;78.78;100463.63;5028996;28;20049;-65
2022/12/13 07:12:54;;;;;;;28.45;15.50;;;;;;;-1.50;79.12;100462.78;5025314;28;20062;-66
2022/12/13 07:15:21;;;;;;;28.15;15.85;;;;;;;-1.49;79.61;100467.91;5024749;28;20497;-65
2022/12/13 07:17:50;;;;;;;24.20;13.95;;;;;;;-1.55;78.43;100468.00;5023827;28;20073;-66
2022/12/13 07:20:19;;;;;;;26.77;15.48;;;;;;;-1.59;78.74;100471.50;5027480;28;20056;-62
2022/12/13 07:22:48;;;;;;;26.02;14.73;;;;;;;-1.61;78.85;100471.53;5021461;28;20072;-64
2022/12/13 07:25:24;;;;;;;26.23;15.90;;;;;;;-1.59;79.02;100474.91;5020562;28;20061;-62
2022/12/13 07:28:00;;;;;;;26.38;15.80;;;;;;;-1.64;79.55;100470.69;5028714;28;20125;-63
2022/12/13 07:30:35;;;;;;;30.98;16.65;;;;;;;-1.64;79.50;100474.13;5019897;28;20048;-65
2022/12/13 07:33:08;;;;;;;26.23;16.02;;;;;;;-1.66;79.38;100480.19;5020165;28;20049;-65
2022/12/13 07:35:35;;;;;;;27.70;15.68;;;;;;;-1.66;79.40;100483.63;5020323;28;20491;-63
2022/12/13 07:38:07;;;;;;;30.17;17.95;;;;;;;-1.71;79.39;100482.81;5037103;28;20057;-64
2022/12/13 07:40:38;;;;;;;29.27;17.25;;;;;;;-1.77;79.70;100487.19;5031585;28;20132;-63
2022/12/13 07:43:06;;;;;;;30.63;17.30;;;;;;;-1.82;79.49;100482.06;5031635;28;20050;-65
2022/12/13 07:45:33;;;;;;;30.60;17.02;;;;;;;-1.83;80.02;100491.53;5031278;28;20065;-63
2022/12/13 07:48:04;;;;;;;30.33;16.55;;;;;;;-1.87;80.15;100486.44;5028986;28;21296;-65
2022/12/13 07:50:31;;;;;;;33.65;18.77;;;;;;;-1.89;80.46;100490.72;5026362;28;20057;-65
2022/12/13 07:53:05;;;;;;;31.92;18.77;;;;;;;-1.92;80.95;100493.38;5026505;28;20534;-66
2022/12/13 07:55:33;;;;;;;36.45;18.38;;;;;;;-1.84;80.74;100481.25;5037190;28;20169;-62
2022/12/13 07:58:04;;;;;;;29.60;18.13;;;;;;;-1.88;80.88;100484.72;5023723;28;20042;-63
2022/12/13 08:00:32;;;;;;;35.80;21.05;;;;;;;-1.92;81.34;100486.47;5025990;28;20132;-64
2022/12/13 08:03:00;;;;;;;36.60;19.98;;;;;;;-1.91;81.42;100495.94;5037581;28;20060;-64
2022/12/13 08:05:27;;;;;;;50.25;20.33;;;;;;;-1.82;81.29;100485.50;5029064;28;20091;-65
2022/12/13 08:08:06;;;;;;;48.55;22.40;;;;;;;-1.75;80.74;100494.06;5034314;28;20211;-64
2022/12/13 08:10:33;;;;;;;46.58;21.00;;;;;;;-1.84;80.91;100487.25;5033278;28;20409;-64
2022/12/13 08:13:01;;;;;;;36.75;18.50;;;;;;;-1.87;81.54;100491.59;5037376;28;20076;-63
2022/12/13 08:15:29;;;;;;;44.15;21.20;;;;;;;-1.86;81.68;100486.41;5032996;28;20085;-64
2022/12/13 08:17:56;;;;;;;38.08;18.90;;;;;;;-1.74;81.49;100500.91;5027608;28;20509;-63
2022/12/13 08:20:24;;;;;;;46.60;19.35;;;;;;;-1.74;81.36;100505.22;5029397;28;20593;-63
2022/12/13 08:22:55;;;;;;;30.77;18.10;;;;;;;-1.80;81.47;100506.16;5042861;28;20512;-65
2022/12/13 08:25:29;;;;;;;31.63;18.50;;;;;;;-1.82;81.15;100508.72;5034293;28;20152;-64
2022/12/13 08:27:57;;;;;;;31.05;18.15;;;;;;;-1.87;81.62;100507.94;5030484;28;20050;-64
2022/12/13 08:30:30;;;;;;;30.15;16.98;;;;;;;-1.82;81.43;100501.00;5031165;28;20128;-64
2022/12/13 08:32:57;;;;;;;32.17;19.48;;;;;;;-1.84;81.31;100507.91;5036333;28;20052;-65
2022/12/13 08:35:27;;;;;;;33.75;18.98;;;;;;;-1.90;81.44;100512.25;5032363;28;20550;-65
2022/12/13 08:38:00;;;;;;;33.25;18.05;;;;;;;-1.93;81.29;100512.31;5028462;28;20145;-64
2022/12/13 08:40:27;;;;;;;29.08;19.15;;;;;;;-1.91;80.83;100510.56;5031234;28;20055;-62
2022/12/13 08:42:55;;;;;;;32.28;17.52;;;;;;;-1.91;81.41;100513.97;5037273;28;20378;-62
2022/12/13 08:45:30;;;;;;;29.92;16.88;;;;;;;-1.88;81.05;100513.97;5035854;28;20431;-65
2022/12/13 08:47:58;;;;;;;30.95;18.05;;;;;;;-1.78;81.06;100522.47;5013892;28;20040;-64
2022/12/13 08:50:26;;;;;;;32.58;17.70;;;;;;;-1.79;80.94;100521.59;5037656;28;20049;-64
2022/12/13 08:52:54;;;;;;;28.65;16.98;;;;;;;-1.80;80.95;100535.38;5039741;28;20049;-65
2022/12/13 08:55:21;;;;;;;33.40;18.05;;;;;;;-1.77;81.04;100531.06;5033741;28;20061;-62
2022/12/13 08:57:58;;;;;;;29.17;18.30;;;;;;;-1.84;81.28;100525.97;5040936;28;20087;-63
2022/12/13 09:00:27;;;;;;;34.72;20.27;;;;;;;-1.82;81.42;100531.94;5022329;28;20414;-65
2022/12/13 09:03:05;;;;;;;32.13;18.55;;;;;;;-1.85;81.45;100523.38;5035530;28;20057;-64
2022/12/13 09:05:36;;;;;;;34.17;19.55;;;;;;;-1.77;81.30;100526.75;5031600;28;20038;-64
2022/12/13 09:08:04;;;;;;;29.67;18.98;;;;;;;-1.76;80.92;100525.00;5032572;28;20068;-65
2022/12/13 09:10:59;;;;;;;33.65;19.83;;;;;;;-1.80;80.98;100525.06;5038346;28;20459;-64
2022/12/13 09:13:31;;;;;;;33.58;18.55;;;;;;;-1.82;81.07;100525.94;5020688;28;20132;-67
2022/12/13 09:16:08;;;;;;;29.63;18.38;;;;;;;-1.84;81.20;100532.84;5042140;28;20144;-65
2022/12/13 09:18:52;;;;;;;33.15;18.55;;;;;;;-1.82;81.37;100529.38;5040073;28;20512;-65
2022/12/13 09:21:22;;;;;;;31.63;18.65;;;;;;;-1.77;81.70;100534.47;5036789;28;20099;-65
2022/12/13 09:23:59;;;;;;;29.95;17.20;;;;;;;-1.83;81.40;100529.41;5006925;28;20503;-64
2022/12/13 09:26:28;;;;;;;32.10;20.40;;;;;;;-1.75;81.45;100529.34;5021960;28;20071;-64
2022/12/13 09:29:05;;;;;;;33.20;18.90;;;;;;;-1.73;81.62;100530.16;5038355;28;20057;-64
2022/12/13 09:31:39;;;;;;;37.20;20.33;;;;;;;-1.68;82.04;100536.97;5027504;28;20466;-64
2022/12/13 09:34:07;;;;;;;32.45;19.00;;;;;;;-1.63;81.80;100531.75;5036552;28;20559;-65
2022/12/13 09:36:34;;;;;;;29.67;17.13;;;;;;;-1.61;81.15;100535.19;5033822;28;20552;-66
2022/12/13 09:39:02;;;;;;;33.85;18.42;;;;;;;-1.48;80.31;100520.44;5031668;28;20056;-65
2022/12/13 09:41:40;;;;;;;37.40;20.20;;;;;;;-1.55;80.28;100525.66;5038024;28;20045;-64
2022/12/13 09:44:34;;;;;;;37.85;18.95;;;;;;;-1.56;80.57;100523.94;5030193;28;20592;-64
2022/12/13 09:47:18;;;;;;;29.98;17.77;;;;;;;-1.59;80.79;100523.97;5037166;28;20045;-65
2022/12/13 09:49:50;;;;;;;27.85;17.90;;;;;;;-1.60;80.83;100526.56;5032225;28;20128;-65
2022/12/13 09:52:21;;;;;;;33.55;18.25;;;;;;;-1.63;80.81;100513.69;5028992;28;20092;-64
2022/12/13 09:54:56;;;;;;;32.17;17.98;;;;;;;-1.64;80.76;100514.56;5026440;28;20057;-65
2022/12/13 09:57:28;;;;;;;34.50;18.25;;;;;;;-1.64;80.75;100515.44;5025249;28;20084;-66
2022/12/13 10:00:03;;;;;;;36.97;19.23;;;;;;;-1.67;80.29;100515.44;5034465;28;20093;-65
2022/12/13 10:02:32;;;;;;;33.05;18.50;;;;;;;-1.72;80.44;100527.53;5034991;28;20152;-66
2022/12/13 10:05:13;;;;;;;36.75;20.00;;;;;;;-1.62;80.89;100513.69;5020104;28;20130;-65
2022/12/13 10:07:52;;;;;;;37.45;21.10;;;;;;;-1.62;80.41;100521.44;5043798;28;20122;-65
2022/12/13 10:10:19;;;;;;;32.13;19.08;;;;;;;-1.66;80.53;100522.34;5037164;28;20057;-65
2022/12/13 10:12:59;;;;;;;34.30;18.77;;;;;;;-1.64;81.08;100522.31;5025233;28;20049;-64
2022/12/13 10:15:27;;;;;;;36.72;20.85;;;;;;;-1.57;81.98;100523.97;5023072;28;20072;-64
2022/12/13 10:17:54;;;;;;;35.13;18.88;;;;;;;-1.46;80.76;100529.00;5030278;28;20548;-64
2022/12/13 10:20:24;;;;;;;30.83;17.90;;;;;;;-1.46;81.23;100526.41;5014250;28;20038;-63
2022/12/13 10:22:52;;;;;;;31.42;18.10;;;;;;;-1.47;80.90;100532.47;5024627;28;20072;-65
2022/12/13 10:25:47;;;;;;;37.50;19.35;;;;;;;-1.57;80.76;100523.97;5028584;28;20079;-62
2022/12/13 10:28:25;;;;;;;29.45;16.98;;;;;;;-1.54;80.41;100509.28;5021113;28;20140;-63
2022/12/13 10:30:52;;;;;;;36.13;19.35;;;;;;;-1.50;80.49;100515.28;5021958;28;20180;-65
2022/12/13 10:33:24;;;;;;;31.77;18.05;;;;;;;-1.47;80.86;100515.25;5026559;28;20077;-64
2022/12/13 10:36:06;;;;;;;31.13;17.33;;;;;;;-1.47;80.70;100509.22;5030409;28;20046;-66
2022/12/13 10:38:39;;;;;;;32.55;19.42;;;;;;;-1.45;80.86;100513.47;5021143;28;20136;-65
2022/12/13 10:41:25;;;;;;;33.38;18.35;;;;;;;-1.41;80.74;100511.72;5040540;28;20132;-65
2022/12/13 10:44:12;;;;;;;31.38;18.77;;;;;;;-1.36;80.13;100512.53;5037796;28;20513;-66
2022/12/13 10:46:41;;;;;;;31.02;18.42;;;;;;;-1.41;80.03;100514.31;5039028;28;20216;-65
2022/12/13 10:49:17;;;;;;;32.55;18.00;;;;;;;-1.49;79.69;100500.63;5023276;28;20053;-65
2022/12/13 10:51:44;;;;;;;;;;;;;;;-1.47;79.89;100507.50;5023810;28;20056;-63
2022/12/13 10:54:25;;;;;;;27.90;16.80;;;;;;;-1.46;79.85;100498.88;5026644;28;19928;-62
2022/12/13 10:56:58;;;;;;;33.75;16.48;;;;;;;-1.37;79.93;100511.69;5022715;28;20053;-65
2022/12/13 10:59:34;;;;;;;26.40;15.35;;;;;;;-1.36;79.54;100502.19;5029874;28;20137;-64
2022/12/13 11:02:27;;;;;;;22.55;13.82;;;;;;;-1.36;78.90;100507.38;5031336;28;20049;-63
2022/12/13 11:04:57;;;;;;;24.48;15.07;;;;;;;-1.36;79.40;100502.19;5036110;28;20080;-63
2022/12/13 11:07:29;;;;;;;26.20;14.82;;;;;;;-1.40;77.75;100497.94;5023009;28;20510;-65
2022/12/13 11:10:24;;;;;;;27.15;15.27;;;;;;;-1.37;78.50;100500.50;5032527;28;20128;-64
2022/12/13 11:13:00;;;;;;;25.13;15.27;;;;;;;-1.25;79.25;100496.91;5033203;28;20132;-65
2022/12/13 11:15:29;;;;;;;25.73;15.52;;;;;;;-1.15;78.36;100493.34;5029185;28;20072;-64
2022/12/13 11:18:00;;;;;;;25.77;15.50;;;;;;;-1.19;77.70;100497.69;5032586;28;20063;-64
2022/12/13 11:20:30;;;;;;;21.17;13.32;;;;;;;-1.30;77.44;100495.25;5029918;28;20413;-64
2022/12/13 11:23:21;;;;;;;21.83;13.48;;;;;;;-1.38;77.02;100493.63;5016245;28;20470;-63
2022/12/13 11:25:54;;;;;;;24.52;13.73;;;;;;;-1.40;77.35;100493.63;5023841;28;20050;-65
2022/12/13 11:28:40;;;;;;;22.65;13.02;;;;;;;-1.38;77.50;100498.78;5029459;28;20140;-63
2022/12/13 11:31:26;;;;;;;;;;;;;;;-1.42;77.54;100497.97;5034840;28;20073;-64
2022/12/13 11:34:25;;;;;;;25.27;14.07;;;;;;;-1.46;77.55;100488.53;5026485;28;20004;-65
2022/12/13 11:37:27;;;;;;;24.48;14.88;;;;;;;-1.35;77.27;100488.41;5019999;28;20144;-64
2022/12/13 11:40:09;;;;;;;24.15;15.38;;;;;;;-1.44;77.26;100488.53;5006015;28;20129;-65
2022/12/13 11:42:52;;;;;;;24.60;14.50;;;;;;;-1.46;78.00;100487.69;5026816;28;20136;-63
2022/12/13 11:45:29;;;;;;;25.00;15.00;;;;;;;-1.41;77.98;100489.34;5031184;28;20081;-64
2022/12/13 11:48:08;;;;;;;26.73;15.13;;;;;;;-1.41;77.34;100485.91;5036550;28;20231;-64
2022/12/13 11:50:37;;;;;;;26.08;13.15;;;;;;;-1.39;77.83;100490.19;5036322;28;20145;-63
2022/12/13 11:53:19;;;;;;;25.27;14.35;;;;;;;-1.35;77.46;100490.97;5027946;28;20183;-64
2022/12/13 11:55:53;;;;;;;25.63;14.02;;;;;;;-1.34;77.81;100487.56;5031435;28;20137;-63
2022/12/13 11:58:46;;;;;;;25.42;13.98;;;;;;;-1.36;77.39;100484.13;5029946;28;20096;-63
2022/12/13 12:01:31;;;;;;;20.33;12.70;;;;;;;-1.37;77.17;100485.00;5029617;28;20090;-63
2022/12/13 12:04:30;;;;;;;24.58;13.25;;;;;;;-1.35;76.93;100485.81;5031024;28;20460;-63
2022/12/13 12:07:10;;;;;;;26.15;13.85;;;;;;;-1.30;77.04;100494.41;5032262;28;20145;-64
2022/12/13 12:10:43;;;;;;;25.85;13.18;;;;;;;-1.27;76.96;100490.03;5036262;28;20132;-63
2022/12/13 12:13:23;;;;;;;21.27;12.48;;;;;;;-1.28;76.77;100488.31;5048935;28;20060;-62
2022/12/13 12:16:04;;;;;;;21.38;12.98;;;;;;;-1.29;76.30;100490.94;5031852;28;20152;-62
2022/12/13 12:18:32;;;;;;;23.65;13.57;;;;;;;-1.29;76.86;100496.94;5030514;28;20045;-62
2022/12/13 12:21:15;;;;;;;21.23;13.57;;;;;;;-1.28;76.53;100490.06;5031085;28;20073;-63
2022/12/13 12:24:06;;;;;;;23.40;13.40;;;;;;;-1.28;76.36;100487.47;5034552;28;20418;-61
2022/12/13 12:26:43;;;;;;;20.80;12.00;;;;;;;-1.26;76.21;100493.47;5026004;28;20053;-61
2022/12/13 12:29:27;;;;;;;22.98;12.25;;;;;;;-1.25;76.24;100482.28;5036688;28;20497;-62
2022/12/13 12:44:48;;;;;;;24.10;13.60;;;;;;;-1.19;76.11;100489.06;5021302;28;20639;-63
2022/12/13 13:13:57;;;;;;;26.05;12.75;;;;;;;-0.75;75.82;100500.53;5029105;28;20552;-62
2022/12/13 15:02:22;;;;;;;19.85;12.65;;;;;;;-0.48;74.16;100492.34;5031506;28;20556;-64
2022/12/13 15:04:59;;;;;;;23.42;12.63;;;;;;;-0.56;74.66;100489.03;5012792;28;20057;-64
2022/12/13 15:33:29;;;;;;;20.35;12.48;;;;;;;-0.30;75.64;100492.06;5017208;28;20121;-63
2022/12/13 15:57:52;;;;;;;27.85;17.25;;;;;;;-0.30;75.39;100488.63;5026914;28;20057;-62
2022/12/13 19:47:16;;;;;;;24.88;15.88;;;;;;;-2.92;76.19;100455.53;5036026;28;20060;-64
2022/12/13 20:29:25;;;;;;;25.30;16.73;;;;;;;-3.21;76.04;100447.13;5028935;28;20579;-63
